sensor_id;sensor_type;location;lat;lon;timestamp;temperature;humidity
4056;DHT22;2043;52.184;8.690;2022-09-09T00:04:15;23.90;80.80
4056;DHT22;2043;52.184;8.690;2022-09-09T00:06:46;23.90;80.70
4056;DHT22;2043;52.184;8.690;2022-09-09T00:09:22;23.90;80.70
4056;DHT22;2043;52.184;8.690;2022-09-09T00:12:02;23.90;80.70
4056;DHT22;2043;52.184;8.690;2022-09-09T00:26:10;23.90;80.90
4056;DHT22;2043;52.184;8.690;2022-09-09T00:28:56;23.90;81.00
4056;DHT22;2043;52.184;8.690;2022-09-09T00:31:29;23.90;81.00
4056;DHT22;2043;52.184;8.690;2022-09-09T00:34:13;23.90;81.00
4056;DHT22;2043;52.184;8.690;2022-09-09T00:36:41;23.90;81.00
4056;DHT22;2043;52.184;8.690;2022-09-09T00:39:30;23.90;81.00
4056;DHT22;2043;52.184;8.690;2022-09-09T00:44:59;23.90;81.00
4056;DHT22;2043;52.184;8.690;2022-09-09T00:55:59;23.90;81.10
4056;DHT22;2043;52.184;8.690;2022-09-09T00:58:28;23.90;81.10
4056;DHT22;2043;52.184;8.690;2022-09-09T01:01:04;23.90;81.00
4056;DHT22;2043;52.184;8.690;2022-09-09T01:03:38;23.90;81.00
4056;DHT22;2043;52.184;8.690;2022-09-09T01:12:16;23.90;80.90
4056;DHT22;2043;52.184;8.690;2022-09-09T01:14:52;23.90;81.00
4056;DHT22;2043;52.184;8.690;2022-09-09T01:17:50;23.90;81.00
4056;DHT22;2043;52.184;8.690;2022-09-09T01:20:27;23.90;80.90
4056;DHT22;2043;52.184;8.690;2022-09-09T01:26:21;23.90;81.00
4056;DHT22;2043;52.184;8.690;2022-09-09T01:28:50;23.90;80.90
4056;DHT22;2043;52.184;8.690;2022-09-09T01:31:26;23.90;80.90
4056;DHT22;2043;52.184;8.690;2022-09-09T01:33:54;23.90;80.90
4056;DHT22;2043;52.184;8.690;2022-09-09T01:36:24;23.90;80.90
4056;DHT22;2043;52.184;8.690;2022-09-09T01:38:53;23.90;80.90
4056;DHT22;2043;52.184;8.690;2022-09-09T01:41:20;23.90;80.90
4056;DHT22;2043;52.184;8.690;2022-09-09T01:43:48;23.90;80.90
4056;DHT22;2043;52.184;8.690;2022-09-09T01:46:16;23.90;80.90
4056;DHT22;2043;52.184;8.690;2022-09-09T01:48:45;23.90;80.90
4056;DHT22;2043;52.184;8.690;2022-09-09T01:51:12;23.90;80.90
4056;DHT22;2043;52.184;8.690;2022-09-09T01:53:41;23.90;80.90
4056;DHT22;2043;52.184;8.690;2022-09-09T02:07:00;23.80;80.60
4056;DHT22;2043;52.184;8.690;2022-09-09T02:09:29;23.80;80.50
4056;DHT22;2043;52.184;8.690;2022-09-09T02:12:08;23.80;80.60
4056;DHT22;2043;52.184;8.690;2022-09-09T02:14:42;23.80;80.70
4056;DHT22;2043;52.184;8.690;2022-09-09T02:17:16;23.80;80.70
4056;DHT22;2043;52.184;8.690;2022-09-09T02:19:53;23.80;80.70
4056;DHT22;2043;52.184;8.690;2022-09-09T02:22:24;23.80;80.70
4056;DHT22;2043;52.184;8.690;2022-09-09T02:24:56;23.80;80.70
4056;DHT22;2043;52.184;8.690;2022-09-09T02:27:26;23.80;80.70
4056;DHT22;2043;52.184;8.690;2022-09-09T02:29:54;23.80;80.70
4056;DHT22;2043;52.184;8.690;2022-09-09T02:32:24;23.80;80.70
4056;DHT22;2043;52.184;8.690;2022-09-09T02:35:13;23.80;80.70
4056;DHT22;2043;52.184;8.690;2022-09-09T02:37:42;23.80;80.70
4056;DHT22;2043;52.184;8.690;2022-09-09T02:40:13;23.80;80.70
4056;DHT22;2043;52.184;8.690;2022-09-09T02:42:44;23.80;80.70
4056;DHT22;2043;52.184;8.690;2022-09-09T02:45:15;23.80;80.70
4056;DHT22;2043;52.184;8.690;2022-09-09T02:47:54;23.80;80.70
4056;DHT22;2043;52.184;8.690;2022-09-09T02:55:44;23.80;80.70
4056;DHT22;2043;52.184;8.690;2022-09-09T02:58:15;23.80;80.70
4056;DHT22;2043;52.184;8.690;2022-09-09T03:00:47;23.80;80.70
4056;DHT22;2043;52.184;8.690;2022-09-09T03:03:15;23.80;80.60
4056;DHT22;2043;52.184;8.690;2022-09-09T03:05:43;23.80;80.60
4056;DHT22;2043;52.184;8.690;2022-09-09T03:08:11;23.80;80.60
4056;DHT22;2043;52.184;8.690;2022-09-09T03:10:39;23.90;80.60
4056;DHT22;2043;52.184;8.690;2022-09-09T03:13:06;23.80;80.60
4056;DHT22;2043;52.184;8.690;2022-09-09T03:15:35;23.80;80.60
4056;DHT22;2043;52.184;8.690;2022-09-09T03:18:02;23.80;80.60
4056;DHT22;2043;52.184;8.690;2022-09-09T03:20:29;23.80;80.60
4056;DHT22;2043;52.184;8.690;2022-09-09T03:22:57;23.80;80.50
4056;DHT22;2043;52.184;8.690;2022-09-09T03:25:25;23.80;80.50
4056;DHT22;2043;52.184;8.690;2022-09-09T03:27:54;23.80;80.60
4056;DHT22;2043;52.184;8.690;2022-09-09T03:30:22;23.80;80.50
4056;DHT22;2043;52.184;8.690;2022-09-09T03:32:49;23.80;80.50
4056;DHT22;2043;52.184;8.690;2022-09-09T03:35:16;23.80;80.50
4056;DHT22;2043;52.184;8.690;2022-09-09T03:37:44;23.80;80.50
4056;DHT22;2043;52.184;8.690;2022-09-09T03:40:11;23.80;80.50
4056;DHT22;2043;52.184;8.690;2022-09-09T03:42:38;23.80;80.50
4056;DHT22;2043;52.184;8.690;2022-09-09T03:45:08;23.80;80.50
4056;DHT22;2043;52.184;8.690;2022-09-09T03:47:36;23.80;80.50
4056;DHT22;2043;52.184;8.690;2022-09-09T03:50:04;23.80;80.50
4056;DHT22;2043;52.184;8.690;2022-09-09T03:52:39;23.80;80.50
4056;DHT22;2043;52.184;8.690;2022-09-09T03:55:08;23.80;80.40
4056;DHT22;2043;52.184;8.690;2022-09-09T03:57:35;23.80;80.40
4056;DHT22;2043;52.184;8.690;2022-09-09T04:00:06;23.80;80.40
4056;DHT22;2043;52.184;8.690;2022-09-09T04:02:34;23.80;80.40
4056;DHT22;2043;52.184;8.690;2022-09-09T04:05:01;23.80;80.40
4056;DHT22;2043;52.184;8.690;2022-09-09T04:07:28;23.80;80.40
4056;DHT22;2043;52.184;8.690;2022-09-09T04:09:55;23.80;80.40
4056;DHT22;2043;52.184;8.690;2022-09-09T04:12:22;23.80;80.40
4056;DHT22;2043;52.184;8.690;2022-09-09T04:14:49;23.80;80.40
4056;DHT22;2043;52.184;8.690;2022-09-09T04:17:16;23.80;80.40
4056;DHT22;2043;52.184;8.690;2022-09-09T04:19:43;23.80;80.40
4056;DHT22;2043;52.184;8.690;2022-09-09T04:22:10;23.80;80.40
4056;DHT22;2043;52.184;8.690;2022-09-09T04:24:37;23.80;80.30
4056;DHT22;2043;52.184;8.690;2022-09-09T04:27:04;23.80;80.30
4056;DHT22;2043;52.184;8.690;2022-09-09T04:29:31;23.80;80.30
4056;DHT22;2043;52.184;8.690;2022-09-09T04:31:58;23.80;80.30
4056;DHT22;2043;52.184;8.690;2022-09-09T04:34:25;23.80;80.30
4056;DHT22;2043;52.184;8.690;2022-09-09T04:36:52;23.80;80.30
4056;DHT22;2043;52.184;8.690;2022-09-09T04:39:19;23.80;80.30
4056;DHT22;2043;52.184;8.690;2022-09-09T04:41:46;23.80;80.30
4056;DHT22;2043;52.184;8.690;2022-09-09T04:44:14;23.80;80.30
4056;DHT22;2043;52.184;8.690;2022-09-09T04:46:40;23.80;80.30
4056;DHT22;2043;52.184;8.690;2022-09-09T04:49:08;23.80;80.20
4056;DHT22;2043;52.184;8.690;2022-09-09T04:51:40;23.80;80.20
4056;DHT22;2043;52.184;8.690;2022-09-09T04:54:07;23.80;80.20
4056;DHT22;2043;52.184;8.690;2022-09-09T04:56:34;23.80;80.20
4056;DHT22;2043;52.184;8.690;2022-09-09T04:59:01;23.80;80.20
4056;DHT22;2043;52.184;8.690;2022-09-09T05:01:29;23.80;80.20
4056;DHT22;2043;52.184;8.690;2022-09-09T05:03:56;23.80;80.20
4056;DHT22;2043;52.184;8.690;2022-09-09T05:06:23;23.80;80.20
4056;DHT22;2043;52.184;8.690;2022-09-09T05:08:50;23.80;80.00
4056;DHT22;2043;52.184;8.690;2022-09-09T05:11:26;23.80;80.00
4056;DHT22;2043;52.184;8.690;2022-09-09T05:13:54;23.80;80.10
4056;DHT22;2043;52.184;8.690;2022-09-09T05:16:21;23.80;80.10
4056;DHT22;2043;52.184;8.690;2022-09-09T05:18:49;23.80;80.10
4056;DHT22;2043;52.184;8.690;2022-09-09T05:21:19;23.80;80.40
4056;DHT22;2043;52.184;8.690;2022-09-09T05:23:46;23.80;80.40
4056;DHT22;2043;52.184;8.690;2022-09-09T05:26:17;23.80;80.20
4056;DHT22;2043;52.184;8.690;2022-09-09T05:28:45;23.80;80.00
4056;DHT22;2043;52.184;8.690;2022-09-09T05:31:14;23.70;80.00
4056;DHT22;2043;52.184;8.690;2022-09-09T05:33:44;23.70;80.00
4056;DHT22;2043;52.184;8.690;2022-09-09T05:36:18;23.60;80.00
4056;DHT22;2043;52.184;8.690;2022-09-09T05:38:46;23.60;80.00
4056;DHT22;2043;52.184;8.690;2022-09-09T05:41:13;23.50;79.90
4056;DHT22;2043;52.184;8.690;2022-09-09T05:43:44;23.50;79.90
4056;DHT22;2043;52.184;8.690;2022-09-09T05:46:14;23.50;79.90
4056;DHT22;2043;52.184;8.690;2022-09-09T05:48:44;23.50;79.90
4056;DHT22;2043;52.184;8.690;2022-09-09T05:51:15;23.40;80.00
4056;DHT22;2043;52.184;8.690;2022-09-09T05:53:44;23.40;80.00
4056;DHT22;2043;52.184;8.690;2022-09-09T05:56:17;23.40;80.10
4056;DHT22;2043;52.184;8.690;2022-09-09T05:58:46;23.40;80.10
4056;DHT22;2043;52.184;8.690;2022-09-09T06:01:18;23.40;80.10
4056;DHT22;2043;52.184;8.690;2022-09-09T06:03:47;23.40;80.10
4056;DHT22;2043;52.184;8.690;2022-09-09T06:06:16;23.40;80.20
4056;DHT22;2043;52.184;8.690;2022-09-09T06:08:52;23.30;80.20
4056;DHT22;2043;52.184;8.690;2022-09-09T06:11:24;23.30;80.40
4056;DHT22;2043;52.184;8.690;2022-09-09T06:13:52;23.30;80.20
4056;DHT22;2043;52.184;8.690;2022-09-09T06:16:23;23.30;80.40
4056;DHT22;2043;52.184;8.690;2022-09-09T06:18:51;23.30;80.50
4056;DHT22;2043;52.184;8.690;2022-09-09T06:21:21;23.30;80.50
4056;DHT22;2043;52.184;8.690;2022-09-09T06:23:50;23.30;80.50
4056;DHT22;2043;52.184;8.690;2022-09-09T06:26:30;23.20;80.60
4056;DHT22;2043;52.184;8.690;2022-09-09T06:28:58;23.20;80.70
4056;DHT22;2043;52.184;8.690;2022-09-09T06:31:27;23.20;80.80
4056;DHT22;2043;52.184;8.690;2022-09-09T06:33:59;23.20;80.80
4056;DHT22;2043;52.184;8.690;2022-09-09T06:36:31;23.20;80.80
4056;DHT22;2043;52.184;8.690;2022-09-09T06:38:58;23.10;80.90
4056;DHT22;2043;52.184;8.690;2022-09-09T06:41:30;23.10;81.10
4056;DHT22;2043;52.184;8.690;2022-09-09T06:43:57;23.20;81.00
4056;DHT22;2043;52.184;8.690;2022-09-09T06:46:29;23.20;81.00
4056;DHT22;2043;52.184;8.690;2022-09-09T06:48:58;23.20;81.00
4056;DHT22;2043;52.184;8.690;2022-09-09T06:51:31;23.30;80.90
4056;DHT22;2043;52.184;8.690;2022-09-09T06:54:00;23.30;80.80
4056;DHT22;2043;52.184;8.690;2022-09-09T06:56:39;23.30;80.80
4056;DHT22;2043;52.184;8.690;2022-09-09T06:59:10;23.30;80.80
4056;DHT22;2043;52.184;8.690;2022-09-09T07:01:41;23.40;80.80
4056;DHT22;2043;52.184;8.690;2022-09-09T07:04:12;23.40;80.80
4056;DHT22;2043;52.184;8.690;2022-09-09T07:06:42;23.40;80.80
4056;DHT22;2043;52.184;8.690;2022-09-09T07:09:14;23.40;80.80
4056;DHT22;2043;52.184;8.690;2022-09-09T07:11:51;23.40;80.80
4056;DHT22;2043;52.184;8.690;2022-09-09T07:14:20;23.40;80.80
4056;DHT22;2043;52.184;8.690;2022-09-09T07:16:47;23.40;80.80
4056;DHT22;2043;52.184;8.690;2022-09-09T07:19:16;23.40;80.80
4056;DHT22;2043;52.184;8.690;2022-09-09T07:21:43;23.40;80.80
4056;DHT22;2043;52.184;8.690;2022-09-09T07:24:11;23.40;80.80
4056;DHT22;2043;52.184;8.690;2022-09-09T07:26:39;23.40;80.90
4056;DHT22;2043;52.184;8.690;2022-09-09T07:29:10;23.50;80.90
4056;DHT22;2043;52.184;8.690;2022-09-09T07:31:46;23.50;80.90
4056;DHT22;2043;52.184;8.690;2022-09-09T07:34:13;23.40;80.90
4056;DHT22;2043;52.184;8.690;2022-09-09T07:36:40;23.50;80.90
4056;DHT22;2043;52.184;8.690;2022-09-09T07:39:10;23.50;81.00
4056;DHT22;2043;52.184;8.690;2022-09-09T07:41:45;23.50;81.00
4056;DHT22;2043;52.184;8.690;2022-09-09T07:44:18;23.50;81.00
4056;DHT22;2043;52.184;8.690;2022-09-09T07:46:45;23.50;81.00
4056;DHT22;2043;52.184;8.690;2022-09-09T07:49:14;23.50;81.00
4056;DHT22;2043;52.184;8.690;2022-09-09T07:51:44;23.50;81.00
4056;DHT22;2043;52.184;8.690;2022-09-09T07:54:15;23.50;81.10
4056;DHT22;2043;52.184;8.690;2022-09-09T07:56:42;23.50;81.10
4056;DHT22;2043;52.184;8.690;2022-09-09T07:59:10;23.50;81.10
4056;DHT22;2043;52.184;8.690;2022-09-09T08:01:47;23.50;81.10
4056;DHT22;2043;52.184;8.690;2022-09-09T08:04:17;23.50;81.10
4056;DHT22;2043;52.184;8.690;2022-09-09T08:06:50;23.50;81.10
4056;DHT22;2043;52.184;8.690;2022-09-09T08:09:20;23.50;81.10
4056;DHT22;2043;52.184;8.690;2022-09-09T08:11:56;23.50;81.10
4056;DHT22;2043;52.184;8.690;2022-09-09T08:14:23;23.50;81.20
4056;DHT22;2043;52.184;8.690;2022-09-09T08:16:51;23.50;81.20
4056;DHT22;2043;52.184;8.690;2022-09-09T08:19:21;23.50;81.20
4056;DHT22;2043;52.184;8.690;2022-09-09T08:21:48;23.50;81.20
4056;DHT22;2043;52.184;8.690;2022-09-09T08:24:16;23.50;81.20
4056;DHT22;2043;52.184;8.690;2022-09-09T08:26:45;23.50;81.30
4056;DHT22;2043;52.184;8.690;2022-09-09T08:29:14;23.50;81.30
4056;DHT22;2043;52.184;8.690;2022-09-09T08:31:50;23.50;81.30
4056;DHT22;2043;52.184;8.690;2022-09-09T08:34:18;23.50;81.30
4056;DHT22;2043;52.184;8.690;2022-09-09T08:36:48;23.50;81.30
4056;DHT22;2043;52.184;8.690;2022-09-09T08:39:18;23.50;81.30
4056;DHT22;2043;52.184;8.690;2022-09-09T08:57:51;23.50;81.40
4056;DHT22;2043;52.184;8.690;2022-09-09T09:00:19;23.50;81.50
4056;DHT22;2043;52.184;8.690;2022-09-09T09:02:57;23.50;81.50
4056;DHT22;2043;52.184;8.690;2022-09-09T09:11:09;23.60;81.50
4056;DHT22;2043;52.184;8.690;2022-09-09T09:13:52;23.60;81.50
4056;DHT22;2043;52.184;8.690;2022-09-09T09:16:26;23.60;81.60
4056;DHT22;2043;52.184;8.690;2022-09-09T09:18:59;23.50;81.50
4056;DHT22;2043;52.184;8.690;2022-09-09T09:21:36;23.60;81.60
4056;DHT22;2043;52.184;8.690;2022-09-09T09:24:12;23.60;81.60
4056;DHT22;2043;52.184;8.690;2022-09-09T09:26:47;23.60;81.60
4056;DHT22;2043;52.184;8.690;2022-09-09T09:29:19;23.60;81.60
4056;DHT22;2043;52.184;8.690;2022-09-09T09:31:55;23.60;81.60
4056;DHT22;2043;52.184;8.690;2022-09-09T09:34:24;23.60;81.60
4056;DHT22;2043;52.184;8.690;2022-09-09T09:39:30;23.60;81.60
4056;DHT22;2043;52.184;8.690;2022-09-09T09:42:18;23.60;81.60
4056;DHT22;2043;52.184;8.690;2022-09-09T09:44:48;23.60;81.60
4056;DHT22;2043;52.184;8.690;2022-09-09T09:47:20;23.60;81.60
4056;DHT22;2043;52.184;8.690;2022-09-09T09:50:00;23.60;81.50
4056;DHT22;2043;52.184;8.690;2022-09-09T09:52:33;23.60;81.60
4056;DHT22;2043;52.184;8.690;2022-09-09T09:55:03;23.60;81.60
4056;DHT22;2043;52.184;8.690;2022-09-09T09:57:34;23.60;81.60
4056;DHT22;2043;52.184;8.690;2022-09-09T10:00:15;23.60;81.60
4056;DHT22;2043;52.184;8.690;2022-09-09T10:02:45;23.60;81.60
4056;DHT22;2043;52.184;8.690;2022-09-09T10:05:29;23.60;81.70
4056;DHT22;2043;52.184;8.690;2022-09-09T10:19:02;23.60;81.50
4056;DHT22;2043;52.184;8.690;2022-09-09T10:21:57;23.60;81.50
4056;DHT22;2043;52.184;8.690;2022-09-09T10:28:10;23.60;81.60
4056;DHT22;2043;52.184;8.690;2022-09-09T10:36:23;23.60;81.70
4056;DHT22;2043;52.184;8.690;2022-09-09T10:42:09;23.60;81.80
4056;DHT22;2043;52.184;8.690;2022-09-09T10:44:59;23.60;81.80
4056;DHT22;2043;52.184;8.690;2022-09-09T10:53:02;23.60;81.80
4056;DHT22;2043;52.184;8.690;2022-09-09T10:55:41;23.60;81.70
4056;DHT22;2043;52.184;8.690;2022-09-09T10:58:28;23.60;81.70
4056;DHT22;2043;52.184;8.690;2022-09-09T11:01:01;23.60;81.70
4056;DHT22;2043;52.184;8.690;2022-09-09T11:03:35;23.70;81.70
4056;DHT22;2043;52.184;8.690;2022-09-09T11:06:17;23.70;81.70
4056;DHT22;2043;52.184;8.690;2022-09-09T11:08:46;23.70;81.80
4056;DHT22;2043;52.184;8.690;2022-09-09T11:11:35;23.70;81.80
4056;DHT22;2043;52.184;8.690;2022-09-09T11:14:15;23.70;81.80
4056;DHT22;2043;52.184;8.690;2022-09-09T11:16:56;23.70;81.80
4056;DHT22;2043;52.184;8.690;2022-09-09T11:19:32;23.70;81.80
4056;DHT22;2043;52.184;8.690;2022-09-09T11:22:27;23.70;81.80
4056;DHT22;2043;52.184;8.690;2022-09-09T11:25:06;23.70;81.80
4056;DHT22;2043;52.184;8.690;2022-09-09T11:38:49;23.70;82.00
4056;DHT22;2043;52.184;8.690;2022-09-09T11:41:20;23.70;82.10
4056;DHT22;2043;52.184;8.690;2022-09-09T11:43:53;23.70;82.20
4056;DHT22;2043;52.184;8.690;2022-09-09T11:46:33;23.70;82.30
4056;DHT22;2043;52.184;8.690;2022-09-09T11:49:03;23.80;82.40
4056;DHT22;2043;52.184;8.690;2022-09-09T11:51:32;23.70;82.30
4056;DHT22;2043;52.184;8.690;2022-09-09T11:54:01;23.80;82.40
4056;DHT22;2043;52.184;8.690;2022-09-09T11:56:46;23.80;82.50
4056;DHT22;2043;52.184;8.690;2022-09-09T11:59:19;23.80;82.50
4056;DHT22;2043;52.184;8.690;2022-09-09T12:02:12;23.80;82.50
4056;DHT22;2043;52.184;8.690;2022-09-09T12:04:48;23.80;82.50
4056;DHT22;2043;52.184;8.690;2022-09-09T12:07:26;23.80;82.50
4056;DHT22;2043;52.184;8.690;2022-09-09T12:12:33;23.80;82.70
4056;DHT22;2043;52.184;8.690;2022-09-09T12:17:43;23.90;82.80
4056;DHT22;2043;52.184;8.690;2022-09-09T12:25:28;23.90;83.00
4056;DHT22;2043;52.184;8.690;2022-09-09T12:30:52;23.90;83.00
4056;DHT22;2043;52.184;8.690;2022-09-09T12:33:22;23.90;83.00
4056;DHT22;2043;52.184;8.690;2022-09-09T12:35:58;23.90;83.00
4056;DHT22;2043;52.184;8.690;2022-09-09T12:38:37;23.90;83.00
4056;DHT22;2043;52.184;8.690;2022-09-09T12:41:05;23.90;83.10
4056;DHT22;2043;52.184;8.690;2022-09-09T12:43:32;24.00;83.10
4056;DHT22;2043;52.184;8.690;2022-09-09T12:46:07;24.00;83.10
4056;DHT22;2043;52.184;8.690;2022-09-09T12:48:38;24.00;83.10
4056;DHT22;2043;52.184;8.690;2022-09-09T12:51:21;24.00;83.00
4056;DHT22;2043;52.184;8.690;2022-09-09T12:53:52;24.10;83.00
4056;DHT22;2043;52.184;8.690;2022-09-09T12:56:21;24.10;83.00
4056;DHT22;2043;52.184;8.690;2022-09-09T12:58:50;24.10;83.00
4056;DHT22;2043;52.184;8.690;2022-09-09T13:01:26;24.10;83.30
4056;DHT22;2043;52.184;8.690;2022-09-09T13:03:54;24.10;83.40
4056;DHT22;2043;52.184;8.690;2022-09-09T13:06:27;24.10;83.50
4056;DHT22;2043;52.184;8.690;2022-09-09T13:08:57;24.10;83.50
4056;DHT22;2043;52.184;8.690;2022-09-09T13:14:01;24.10;83.40
4056;DHT22;2043;52.184;8.690;2022-09-09T13:16:30;24.10;83.40
4056;DHT22;2043;52.184;8.690;2022-09-09T13:19:06;24.10;83.40
4056;DHT22;2043;52.184;8.690;2022-09-09T13:21:38;24.10;83.40
4056;DHT22;2043;52.184;8.690;2022-09-09T13:24:20;24.10;83.40
4056;DHT22;2043;52.184;8.690;2022-09-09T13:26:56;24.10;83.50
4056;DHT22;2043;52.184;8.690;2022-09-09T13:29:23;24.10;83.50
4056;DHT22;2043;52.184;8.690;2022-09-09T13:31:51;24.10;83.50
4056;DHT22;2043;52.184;8.690;2022-09-09T13:34:32;24.10;83.50
4056;DHT22;2043;52.184;8.690;2022-09-09T13:37:01;24.10;83.50
4056;DHT22;2043;52.184;8.690;2022-09-09T13:39:36;24.10;83.50
4056;DHT22;2043;52.184;8.690;2022-09-09T13:42:04;24.10;83.50
4056;DHT22;2043;52.184;8.690;2022-09-09T13:44:39;24.10;83.50
4056;DHT22;2043;52.184;8.690;2022-09-09T13:49:41;24.10;83.50
4056;DHT22;2043;52.184;8.690;2022-09-09T13:52:09;24.10;83.50
4056;DHT22;2043;52.184;8.690;2022-09-09T13:54:36;24.10;83.50
4056;DHT22;2043;52.184;8.690;2022-09-09T13:57:03;24.10;83.50
4056;DHT22;2043;52.184;8.690;2022-09-09T13:59:31;24.20;83.50
4056;DHT22;2043;52.184;8.690;2022-09-09T14:02:18;24.20;83.60
4056;DHT22;2043;52.184;8.690;2022-09-09T14:04:47;24.20;83.50
4056;DHT22;2043;52.184;8.690;2022-09-09T14:07:18;24.20;83.60
4056;DHT22;2043;52.184;8.690;2022-09-09T14:09:45;24.20;83.60
4056;DHT22;2043;52.184;8.690;2022-09-09T14:12:16;24.20;83.60
4056;DHT22;2043;52.184;8.690;2022-09-09T14:14:44;24.30;83.60
4056;DHT22;2043;52.184;8.690;2022-09-09T14:17:11;24.30;83.60
4056;DHT22;2043;52.184;8.690;2022-09-09T14:19:38;24.30;83.60
4056;DHT22;2043;52.184;8.690;2022-09-09T14:22:05;24.30;83.70
4056;DHT22;2043;52.184;8.690;2022-09-09T14:24:32;24.30;83.70
4056;DHT22;2043;52.184;8.690;2022-09-09T14:27:00;24.30;83.70
4056;DHT22;2043;52.184;8.690;2022-09-09T14:29:27;24.40;83.70
4056;DHT22;2043;52.184;8.690;2022-09-09T14:31:55;24.40;83.70
4056;DHT22;2043;52.184;8.690;2022-09-09T14:34:22;24.40;83.80
4056;DHT22;2043;52.184;8.690;2022-09-09T14:36:49;24.40;83.70
4056;DHT22;2043;52.184;8.690;2022-09-09T14:39:17;24.50;83.70
4056;DHT22;2043;52.184;8.690;2022-09-09T14:41:44;24.50;83.70
4056;DHT22;2043;52.184;8.690;2022-09-09T14:44:12;24.50;83.60
4056;DHT22;2043;52.184;8.690;2022-09-09T14:46:39;24.50;83.70
4056;DHT22;2043;52.184;8.690;2022-09-09T14:49:06;24.60;83.80
4056;DHT22;2043;52.184;8.690;2022-09-09T14:51:32;24.60;83.70
4056;DHT22;2043;52.184;8.690;2022-09-09T14:54:00;24.60;83.70
4056;DHT22;2043;52.184;8.690;2022-09-09T14:56:31;24.60;83.80
4056;DHT22;2043;52.184;8.690;2022-09-09T14:58:58;24.60;83.80
4056;DHT22;2043;52.184;8.690;2022-09-09T15:01:28;24.60;83.80
4056;DHT22;2043;52.184;8.690;2022-09-09T15:04:01;24.60;83.80
4056;DHT22;2043;52.184;8.690;2022-09-09T15:06:30;24.50;83.80
4056;DHT22;2043;52.184;8.690;2022-09-09T15:08:59;24.50;83.90
4056;DHT22;2043;52.184;8.690;2022-09-09T15:11:33;24.50;83.80
4056;DHT22;2043;52.184;8.690;2022-09-09T15:14:05;24.50;83.90
4056;DHT22;2043;52.184;8.690;2022-09-09T15:16:33;24.50;83.90
4056;DHT22;2043;52.184;8.690;2022-09-09T15:19:01;24.50;83.80
4056;DHT22;2043;52.184;8.690;2022-09-09T15:21:32;24.50;83.90
4056;DHT22;2043;52.184;8.690;2022-09-09T15:23:59;24.50;83.90
4056;DHT22;2043;52.184;8.690;2022-09-09T15:26:27;24.50;83.90
4056;DHT22;2043;52.184;8.690;2022-09-09T15:28:54;24.50;83.90
4056;DHT22;2043;52.184;8.690;2022-09-09T15:31:23;24.50;83.90
4056;DHT22;2043;52.184;8.690;2022-09-09T15:33:52;24.40;83.90
4056;DHT22;2043;52.184;8.690;2022-09-09T15:36:22;24.50;83.90
4056;DHT22;2043;52.184;8.690;2022-09-09T15:38:50;24.40;83.80
4056;DHT22;2043;52.184;8.690;2022-09-09T15:41:19;24.40;83.80
4056;DHT22;2043;52.184;8.690;2022-09-09T15:43:48;24.40;83.80
4056;DHT22;2043;52.184;8.690;2022-09-09T15:49:02;24.40;83.70
4056;DHT22;2043;52.184;8.690;2022-09-09T15:51:30;24.50;83.70
4056;DHT22;2043;52.184;8.690;2022-09-09T15:54:12;24.40;83.70
4056;DHT22;2043;52.184;8.690;2022-09-09T15:56:41;24.40;83.70
4056;DHT22;2043;52.184;8.690;2022-09-09T15:59:08;24.50;83.70
4056;DHT22;2043;52.184;8.690;2022-09-09T16:01:36;24.50;83.70
4056;DHT22;2043;52.184;8.690;2022-09-09T16:04:03;24.40;83.60
4056;DHT22;2043;52.184;8.690;2022-09-09T16:06:31;24.40;83.60
4056;DHT22;2043;52.184;8.690;2022-09-09T16:09:02;24.40;83.60
4056;DHT22;2043;52.184;8.690;2022-09-09T16:11:32;24.50;83.60
4056;DHT22;2043;52.184;8.690;2022-09-09T16:14:00;24.50;83.60
4056;DHT22;2043;52.184;8.690;2022-09-09T16:16:28;24.40;83.60
4056;DHT22;2043;52.184;8.690;2022-09-09T16:19:00;24.40;83.60
4056;DHT22;2043;52.184;8.690;2022-09-09T16:21:35;24.40;83.60
4056;DHT22;2043;52.184;8.690;2022-09-09T16:24:03;24.40;83.60
4056;DHT22;2043;52.184;8.690;2022-09-09T16:26:32;24.40;83.60
4056;DHT22;2043;52.184;8.690;2022-09-09T16:29:00;24.40;83.60
4056;DHT22;2043;52.184;8.690;2022-09-09T16:31:28;24.40;83.60
4056;DHT22;2043;52.184;8.690;2022-09-09T16:33:56;24.40;83.60
4056;DHT22;2043;52.184;8.690;2022-09-09T16:36:25;24.40;83.60
4056;DHT22;2043;52.184;8.690;2022-09-09T16:38:54;24.50;83.60
4056;DHT22;2043;52.184;8.690;2022-09-09T16:41:21;24.40;83.60
4056;DHT22;2043;52.184;8.690;2022-09-09T16:43:53;24.40;83.60
4056;DHT22;2043;52.184;8.690;2022-09-09T16:46:21;24.40;83.60
4056;DHT22;2043;52.184;8.690;2022-09-09T16:48:49;24.40;83.60
4056;DHT22;2043;52.184;8.690;2022-09-09T16:51:22;24.40;83.50
4056;DHT22;2043;52.184;8.690;2022-09-09T16:53:51;24.40;83.60
4056;DHT22;2043;52.184;8.690;2022-09-09T16:56:21;24.40;83.60
4056;DHT22;2043;52.184;8.690;2022-09-09T16:58:51;24.40;83.60
4056;DHT22;2043;52.184;8.690;2022-09-09T17:01:18;24.40;83.50
4056;DHT22;2043;52.184;8.690;2022-09-09T17:03:45;24.40;83.50
4056;DHT22;2043;52.184;8.690;2022-09-09T17:06:14;24.40;83.50
4056;DHT22;2043;52.184;8.690;2022-09-09T17:08:42;24.40;83.50
4056;DHT22;2043;52.184;8.690;2022-09-09T17:11:17;24.40;83.50
4056;DHT22;2043;52.184;8.690;2022-09-09T17:13:46;24.40;83.50
4056;DHT22;2043;52.184;8.690;2022-09-09T17:16:15;24.40;83.50
4056;DHT22;2043;52.184;8.690;2022-09-09T17:18:44;24.40;83.50
4056;DHT22;2043;52.184;8.690;2022-09-09T17:21:15;24.40;83.50
4056;DHT22;2043;52.184;8.690;2022-09-09T17:23:42;24.40;83.50
4056;DHT22;2043;52.184;8.690;2022-09-09T17:26:14;24.30;83.50
4056;DHT22;2043;52.184;8.690;2022-09-09T17:28:42;24.30;83.50
4056;DHT22;2043;52.184;8.690;2022-09-09T17:31:10;24.30;83.40
4056;DHT22;2043;52.184;8.690;2022-09-09T17:33:39;24.30;83.40
4056;DHT22;2043;52.184;8.690;2022-09-09T17:36:15;24.30;83.40
4056;DHT22;2043;52.184;8.690;2022-09-09T17:38:43;24.30;83.40
4056;DHT22;2043;52.184;8.690;2022-09-09T17:41:14;24.30;83.40
4056;DHT22;2043;52.184;8.690;2022-09-09T17:43:42;24.30;83.30
4056;DHT22;2043;52.184;8.690;2022-09-09T17:46:18;24.30;83.40
4056;DHT22;2043;52.184;8.690;2022-09-09T17:48:51;24.30;83.40
4056;DHT22;2043;52.184;8.690;2022-09-09T17:51:20;24.30;83.40
4056;DHT22;2043;52.184;8.690;2022-09-09T17:53:51;24.30;83.40
4056;DHT22;2043;52.184;8.690;2022-09-09T17:56:20;24.30;83.40
4056;DHT22;2043;52.184;8.690;2022-09-09T17:58:48;24.30;83.40
4056;DHT22;2043;52.184;8.690;2022-09-09T18:01:27;24.30;83.40
4056;DHT22;2043;52.184;8.690;2022-09-09T18:03:55;24.30;83.40
4056;DHT22;2043;52.184;8.690;2022-09-09T18:06:25;24.30;83.40
4056;DHT22;2043;52.184;8.690;2022-09-09T18:08:58;24.30;83.30
4056;DHT22;2043;52.184;8.690;2022-09-09T18:11:30;24.30;83.30
4056;DHT22;2043;52.184;8.690;2022-09-09T18:14:00;24.30;83.30
4056;DHT22;2043;52.184;8.690;2022-09-09T18:16:30;24.20;83.30
4056;DHT22;2043;52.184;8.690;2022-09-09T18:18:57;24.20;83.30
4056;DHT22;2043;52.184;8.690;2022-09-09T18:21:25;24.20;83.30
4056;DHT22;2043;52.184;8.690;2022-09-09T18:23:53;24.20;83.30
4056;DHT22;2043;52.184;8.690;2022-09-09T18:26:23;24.20;83.20
4056;DHT22;2043;52.184;8.690;2022-09-09T18:28:54;24.20;83.20
4056;DHT22;2043;52.184;8.690;2022-09-09T18:31:23;24.20;83.20
4056;DHT22;2043;52.184;8.690;2022-09-09T18:33:51;24.20;83.20
4056;DHT22;2043;52.184;8.690;2022-09-09T18:36:42;24.20;83.20
4056;DHT22;2043;52.184;8.690;2022-09-09T18:39:12;24.20;83.10
4056;DHT22;2043;52.184;8.690;2022-09-09T18:41:48;24.20;83.10
4056;DHT22;2043;52.184;8.690;2022-09-09T18:44:23;24.20;83.10